Time;durP1;ratioP1;P1;durP2;ratioP2;P2;SDS_P1;SDS_P2;PMS_P1;PMS_P2;Temp;Humidity;BMP_temperature;BMP_pressure;BME280_temperature;BME280_humidity;BME280_pressure;Samples;Min_cycle;Max_cycle;Signal;HPM_P1;HPM_P2
2023/02/06 00:01:40;;;;;;;25.65;13.77;;;;;;;;;;4922440;29;20096;-63
2023/02/06 00:04:05;;;;;;;26.80;14.30;;;;;;;;;;4921990;29;20042;-62
2023/02/06 00:06:31;;;;;;;30.88;16.40;;;;;;;;;;4939235;29;20032;-63
2023/02/06 00:08:56;;;;;;;35.63;18.70;;;;;;;;;;4938899;29;20512;-62
2023/02/06 00:11:25;;;;;;;34.45;18.08;;;;;;;;;;4938797;29;20040;-71
2023/02/06 00:13:51;;;;;;;24.50;14.20;;;;;;;;;;4922277;29;20078;-71
2023/02/06 00:16:16;;;;;;;25.58;13.52;;;;;;;;;;4939372;29;20035;-71
2023/02/06 00:18:41;;;;;;;27.35;15.80;;;;;;;;;;4938931;29;20132;-71
2023/02/06 00:21:07;;;;;;;25.45;15.57;;;;;;;;;;4938955;29;20038;-71
2023/02/06 00:23:32;;;;;;;22.60;13.43;;;;;;;;;;4939058;29;20087;-71
2023/02/06 00:25:57;;;;;;;28.98;15.32;;;;;;;;;;4939034;29;20031;-71
2023/02/06 00:28:23;;;;;;;32.67;17.58;;;;;;;;;;4921514;29;20038;-70
2023/02/06 00:30:50;;;;;;;34.60;19.08;;;;;;;;;;4921523;29;20062;-70
2023/02/06 00:33:15;;;;;;;40.92;20.42;;;;;;;;;;4921663;29;20495;-70
2023/02/06 00:35:44;;;;;;;34.63;18.67;;;;;;;;;;4921676;29;20027;-70
2023/02/06 00:38:09;;;;;;;28.17;16.38;;;;;;;;;;4938748;29;20028;-70
2023/02/06 00:40:36;;;;;;;29.33;16.33;;;;;;;;;;4938690;29;20391;-70
2023/02/06 00:43:01;;;;;;;27.40;16.15;;;;;;;;;;4938971;29;20118;-70
2023/02/06 00:45:27;;;;;;;29.70;17.90;;;;;;;;;;4937811;29;20119;-71
2023/02/06 00:47:52;;;;;;;24.95;14.73;;;;;;;;;;4920070;29;20103;-70
2023/02/06 00:50:17;;;;;;;26.13;14.95;;;;;;;;;;4920268;29;20024;-71
2023/02/06 00:52:43;;;;;;;24.13;15.30;;;;;;;;;;4920500;29;20083;-71
2023/02/06 00:55:11;;;;;;;25.92;15.00;;;;;;;;;;4937389;29;20063;-70
2023/02/06 00:57:36;;;;;;;28.70;15.77;;;;;;;;;;4937716;29;20019;-70
2023/02/06 01:00:03;;;;;;;26.63;15.15;;;;;;;;;;4920425;29;20024;-71
2023/02/06 01:02:29;;;;;;;29.40;15.15;;;;;;;;;;4918934;29;20031;-72
2023/02/06 01:04:56;;;;;;;21.73;13.52;;;;;;;;;;4936908;29;20085;-72
2023/02/06 01:07:21;;;;;;;25.73;14.48;;;;;;;;;;4920107;29;20074;-72
2023/02/06 01:09:47;;;;;;;26.58;15.30;;;;;;;;;;4936852;29;20078;-72
2023/02/06 01:12:12;;;;;;;29.05;17.10;;;;;;;;;;4936881;29;20032;-72
2023/02/06 01:14:37;;;;;;;28.88;16.48;;;;;;;;;;4919943;29;20035;-72
2023/02/06 01:17:04;;;;;;;26.85;14.80;;;;;;;;;;4920755;29;20054;-72
2023/02/06 01:19:29;;;;;;;25.42;14.23;;;;;;;;;;4938041;29;20036;-72
2023/02/06 01:21:54;;;;;;;24.48;14.38;;;;;;;;;;4938009;29;20032;-72
2023/02/06 01:24:20;;;;;;;24.83;13.85;;;;;;;;;;4937849;29;20072;-71
2023/02/06 01:26:47;;;;;;;25.42;13.55;;;;;;;;;;4937462;29;20084;-63
2023/02/06 01:32:22;;;;;;;24.30;13.38;;;;;;;;;;4870341;29;20124;-71
2023/02/06 01:34:48;;;;;;;26.33;14.20;;;;;;;;;;4861328;29;20140;-71
2023/02/06 01:37:13;;;;;;;24.02;14.48;;;;;;;;;;4861410;29;20025;-71
2023/02/06 01:39:38;;;;;;;25.08;14.95;;;;;;;;;;4862584;29;20069;-72
2023/02/06 01:42:28;;;;;;;27.38;15.02;;;;;;;;;;4873360;23;20100;-63
2023/02/06 01:45:35;;;;;;;24.33;13.98;;;;;;;;;;5108999;22;20516;-65
2023/02/06 01:48:07;;;;;;;23.65;13.57;;;;;;;;;;5087120;28;20040;-63
2023/02/06 01:50:34;;;;;;;24.42;15.25;;;;;;;;;;5090153;28;20033;-64
2023/02/06 01:53:02;;;;;;;30.55;17.58;;;;;;;;;;5091204;28;20024;-64
2023/02/06 01:55:27;;;;;;;28.98;16.73;;;;;;;;;;5091057;28;20031;-63
2023/02/06 01:57:53;;;;;;;31.23;17.52;;;;;;;;;;5089889;28;20036;-63
2023/02/06 02:00:19;;;;;;;37.92;20.73;;;;;;;;;;5091029;28;20386;-62
2023/02/06 02:02:47;;;;;;;32.38;18.95;;;;;;;;;;5091159;28;20107;-62
2023/02/06 02:05:13;;;;;;;28.77;17.70;;;;;;;;;;5090069;28;20028;-62
2023/02/06 02:07:48;;;;;;;31.90;18.75;;;;;;;;;;5089655;28;20470;-63
2023/02/06 02:10:14;;;;;;;35.83;20.30;;;;;;;;;;5090872;28;20474;-62
2023/02/06 02:12:39;;;;;;;41.80;23.27;;;;;;;;;;5089442;28;20022;-64
2023/02/06 02:15:06;;;;;;;34.78;19.23;;;;;;;;;;5090509;28;20489;-64
2023/02/06 02:17:34;;;;;;;41.65;22.83;;;;;;;;;;5089668;28;20024;-64
2023/02/06 02:20:13;;;;;;;43.20;24.73;;;;;;;;;;5090788;28;20028;-64
2023/02/06 02:22:57;;;;;;;44.95;24.90;;;;;;;;;;5090485;28;20032;-65
2023/02/06 02:25:39;;;;;;;41.33;24.10;;;;;;;;;;5091019;28;20463;-64
2023/02/06 02:28:20;;;;;;;45.65;25.27;;;;;;;;;;5090768;28;20028;-63
2023/02/06 02:31:06;;;;;;;41.92;23.02;;;;;;;;;;5090626;28;20043;-63
2023/02/06 02:33:38;;;;;;;42.90;23.58;;;;;;;;;;5089315;28;20038;-71
2023/02/06 02:36:22;;;;;;;42.47;24.52;;;;;;;;;;5090417;28;20021;-71
2023/02/06 02:38:49;;;;;;;48.28;25.73;;;;;;;;;;5088991;28;20060;-71
2023/02/06 02:41:27;;;;;;;35.42;19.90;;;;;;;;;;5089297;28;20082;-72
2023/02/06 02:44:10;;;;;;;35.42;18.48;;;;;;;;;;5088877;28;20036;-72
2023/02/06 02:46:37;;;;;;;32.00;17.02;;;;;;;;;;5089206;28;20113;-65
2023/02/06 02:49:04;;;;;;;32.83;19.02;;;;;;;;;;5089053;28;20024;-66
2023/02/06 02:51:32;;;;;;;53.22;26.65;;;;;;;;;;5088723;28;20050;-65
2023/02/06 02:53:57;;;;;;;106.88;42.13;;;;;;;;;;5088474;28;20024;-65
2023/02/06 02:56:24;;;;;;;122.78;45.42;;;;;;;;;;5075624;28;20166;-64
2023/02/06 02:58:55;;;;;;;104.25;40.83;;;;;;;;;;5075285;28;20035;-65
2023/02/06 03:01:23;;;;;;;90.53;39.42;;;;;;;;;;5075370;28;20060;-63
2023/02/06 03:03:51;;;;;;;107.53;41.97;;;;;;;;;;5076435;28;20098;-64
2023/02/06 03:06:24;;;;;;;81.10;35.80;;;;;;;;;;5076541;28;20352;-65
2023/02/06 03:08:51;;;;;;;85.90;37.78;;;;;;;;;;5076544;28;20433;-71
2023/02/06 03:11:22;;;;;;;86.60;37.00;;;;;;;;;;5076378;28;20017;-71
2023/02/06 03:14:01;;;;;;;78.85;33.38;;;;;;;;;;5075221;28;20032;-71
2023/02/06 03:16:47;;;;;;;73.28;32.25;;;;;;;;;;5058274;28;20469;-72
2023/02/06 03:19:14;;;;;;;66.22;30.27;;;;;;;;;;5076081;28;20029;-71
2023/02/06 03:21:41;;;;;;;40.75;21.95;;;;;;;;;;5074983;28;20029;-72
2023/02/06 03:24:12;;;;;;;40.25;20.88;;;;;;;;;;5076003;28;20419;-63
2023/02/06 03:26:39;;;;;;;39.97;20.40;;;;;;;;;;5076542;28;20078;-64
2023/02/06 03:29:05;;;;;;;42.83;20.45;;;;;;;;;;5076275;28;20036;-63
2023/02/06 03:31:33;;;;;;;42.28;21.85;;;;;;;;;;5075885;28;20031;-64
2023/02/06 03:34:02;;;;;;;29.65;16.63;;;;;;;;;;5064432;28;20451;-64
2023/02/06 03:36:29;;;;;;;30.95;16.08;;;;;;;;;;5069313;28;20028;-64
2023/02/06 03:38:54;;;;;;;37.05;17.60;;;;;;;;;;5062045;28;20028;-64
2023/02/06 03:41:22;;;;;;;32.17;17.02;;;;;;;;;;5054523;28;20106;-64
2023/02/06 03:43:48;;;;;;;30.90;16.67;;;;;;;;;;5066312;28;20455;-66
2023/02/06 03:46:16;;;;;;;23.45;14.43;;;;;;;;;;5055953;28;20040;-64
2023/02/06 03:48:44;;;;;;;21.20;11.90;;;;;;;;;;5062897;28;20028;-64
2023/02/06 03:51:30;;;;;;;23.83;12.38;;;;;;;;;;5075514;28;20032;-64
2023/02/06 03:53:57;;;;;;;22.90;12.40;;;;;;;;;;5075490;28;20136;-64
2023/02/06 03:56:25;;;;;;;16.90;10.68;;;;;;;;;;5075518;28;20021;-64
2023/02/06 03:58:56;;;;;;;20.52;10.98;;;;;;;;;;5075340;28;20471;-65
2023/02/06 04:01:22;;;;;;;18.00;11.35;;;;;;;;;;5075403;28;20044;-65
2023/02/06 04:03:48;;;;;;;20.00;10.70;;;;;;;;;;5075450;28;20028;-65
2023/02/06 04:06:14;;;;;;;30.13;13.77;;;;;;;;;;5073557;28;20536;-72
2023/02/06 04:08:40;;;;;;;97.10;33.75;;;;;;;;;;5074488;28;20028;-71
2023/02/06 04:11:06;;;;;;;31.48;15.00;;;;;;;;;;5075092;28;20024;-73
2023/02/06 04:13:31;;;;;;;49.97;19.65;;;;;;;;;;5075200;28;20471;-74
2023/02/06 04:18:41;;;;;;;37.17;17.75;;;;;;;;;;5100804;22;20056;-65
2023/02/06 04:21:06;;;;;;;48.55;20.73;;;;;;;;;;5053475;28;20025;-64
2023/02/06 04:23:32;;;;;;;39.72;18.98;;;;;;;;;;5053652;28;20081;-74
2023/02/06 04:25:57;;;;;;;43.15;20.48;;;;;;;;;;5055103;28;20117;-74
2023/02/06 04:28:24;;;;;;;49.50;21.10;;;;;;;;;;5055064;28;20025;-74
2023/02/06 04:30:49;;;;;;;47.45;20.35;;;;;;;;;;5054802;28;20017;-73
2023/02/06 04:33:14;;;;;;;46.20;19.52;;;;;;;;;;5054963;28;20079;-74
2023/02/06 04:35:40;;;;;;;44.45;21.23;;;;;;;;;;5038456;28;20029;-74
2023/02/06 04:38:05;;;;;;;45.88;21.55;;;;;;;;;;5033885;28;20060;-73
2023/02/06 04:40:30;;;;;;;44.63;23.52;;;;;;;;;;5034770;28;20033;-73
2023/02/06 04:42:57;;;;;;;32.50;19.13;;;;;;;;;;5034772;28;20454;-71
2023/02/06 04:45:22;;;;;;;32.10;18.60;;;;;;;;;;5034200;28;20040;-70
2023/02/06 04:47:49;;;;;;;30.98;17.83;;;;;;;;;;5034423;28;20030;-71
2023/02/06 04:50:14;;;;;;;32.75;17.65;;;;;;;;;;5033333;28;20052;-71
2023/02/06 04:52:40;;;;;;;40.00;22.20;;;;;;;;;;5034531;28;20476;-72
2023/02/06 04:55:05;;;;;;;42.00;21.90;;;;;;;;;;5034315;28;20021;-72
2023/02/06 04:57:31;;;;;;;32.60;19.58;;;;;;;;;;5034592;28;20068;-72
2023/02/06 04:59:58;;;;;;;35.63;20.27;;;;;;;;;;5033489;28;20034;-72
2023/02/06 05:02:24;;;;;;;36.00;19.88;;;;;;;;;;5034153;28;20117;-72
2023/02/06 05:04:49;;;;;;;41.03;21.90;;;;;;;;;;5033084;28;20093;-72
2023/02/06 05:07:17;;;;;;;43.00;22.55;;;;;;;;;;5034419;28;20116;-72
2023/02/06 05:09:42;;;;;;;78.70;43.30;;;;;;;;;;5033049;28;20034;-71
2023/02/06 05:12:08;;;;;;;60.55;33.67;;;;;;;;;;5034185;28;20022;-72
2023/02/06 05:14:33;;;;;;;44.95;23.88;;;;;;;;;;5033749;28;20494;-72
2023/02/06 05:17:02;;;;;;;52.20;29.13;;;;;;;;;;5033868;28;20033;-73
2023/02/06 05:19:28;;;;;;;53.38;26.88;;;;;;;;;;5016191;28;20136;-71
2023/02/06 05:21:53;;;;;;;53.03;28.17;;;;;;;;;;5032614;28;20104;-72
2023/02/06 05:24:19;;;;;;;54.80;26.92;;;;;;;;;;5033267;28;20056;-71
2023/02/06 05:26:45;;;;;;;56.95;28.20;;;;;;;;;;5032647;28;20137;-72
2023/02/06 05:29:10;;;;;;;55.70;29.10;;;;;;;;;;5033747;28;20026;-73
2023/02/06 05:31:36;;;;;;;61.20;31.27;;;;;;;;;;5031991;28;20022;-73
2023/02/06 05:34:01;;;;;;;64.03;31.30;;;;;;;;;;5032609;28;20037;-73
2023/02/06 05:36:28;;;;;;;57.33;30.17;;;;;;;;;;5026794;28;20025;-64
2023/02/06 05:38:53;;;;;;;58.08;29.45;;;;;;;;;;5012049;28;20037;-72
2023/02/06 05:41:18;;;;;;;58.85;29.00;;;;;;;;;;5035292;28;20036;-72
2023/02/06 05:43:44;;;;;;;54.40;27.70;;;;;;;;;;5049925;28;20647;-62
2023/02/06 05:46:11;;;;;;;56.90;29.08;;;;;;;;;;5032735;28;20025;-64
2023/02/06 05:48:37;;;;;;;46.55;26.30;;;;;;;;;;5048912;28;20495;-64
2023/02/06 05:51:02;;;;;;;45.33;26.02;;;;;;;;;;5050519;28;20029;-63
2023/02/06 05:53:28;;;;;;;50.95;27.50;;;;;;;;;;5050718;28;20039;-63
2023/02/06 05:55:53;;;;;;;42.42;25.52;;;;;;;;;;5049757;28;20021;-63
2023/02/06 05:58:19;;;;;;;50.38;27.65;;;;;;;;;;5050044;28;20068;-63
2023/02/06 06:00:45;;;;;;;44.50;25.08;;;;;;;;;;5047959;28;20124;-64
2023/02/06 06:03:10;;;;;;;29.25;18.00;;;;;;;;;;5049396;28;20112;-63
2023/02/06 06:05:35;;;;;;;33.40;20.77;;;;;;;;;;5032258;28;20490;-65
2023/02/06 06:08:01;;;;;;;38.80;21.73;;;;;;;;;;5031922;28;20029;-64
2023/02/06 06:10:27;;;;;;;37.00;21.60;;;;;;;;;;5034489;28;20467;-64
2023/02/06 06:12:52;;;;;;;39.22;23.50;;;;;;;;;;5042857;28;20048;-65
2023/02/06 06:15:17;;;;;;;37.10;23.10;;;;;;;;;;5015058;28;20495;-65
2023/02/06 06:17:46;;;;;;;39.92;23.45;;;;;;;;;;5031972;28;20017;-65
2023/02/06 06:20:11;;;;;;;36.10;21.52;;;;;;;;;;5031895;28;20080;-76
2023/02/06 06:22:36;;;;;;;30.38;17.48;;;;;;;;;;5033031;28;20053;-75
2023/02/06 06:25:03;;;;;;;31.77;18.30;;;;;;;;;;5014737;28;20037;-74
2023/02/06 06:27:29;;;;;;;36.80;21.52;;;;;;;;;;5013414;28;20525;-69
2023/02/06 06:29:54;;;;;;;38.78;22.08;;;;;;;;;;5013403;28;20026;-66
2023/02/06 06:32:19;;;;;;;35.40;21.55;;;;;;;;;;5032634;28;20037;-64
2023/02/06 06:34:45;;;;;;;35.85;20.60;;;;;;;;;;5034541;28;20053;-66
2023/02/06 06:37:16;;;;;;;33.38;19.70;;;;;;;;;;5017689;28;20029;-66
2023/02/06 06:39:41;;;;;;;34.40;19.65;;;;;;;;;;5035007;28;20312;-65
2023/02/06 06:42:08;;;;;;;35.38;21.23;;;;;;;;;;5017491;28;20033;-72
2023/02/06 06:44:33;;;;;;;34.47;19.35;;;;;;;;;;5036450;28;20022;-74
2023/02/06 06:46:59;;;;;;;30.65;19.15;;;;;;;;;;5037156;28;20033;-73
2023/02/06 06:49:25;;;;;;;37.70;22.85;;;;;;;;;;5019219;28;20025;-74
2023/02/06 06:51:50;;;;;;;40.55;23.63;;;;;;;;;;5018247;28;20036;-75
2023/02/06 06:54:18;;;;;;;37.53;23.77;;;;;;;;;;5060122;22;20403;-73
2023/02/06 06:56:43;;;;;;;34.22;21.70;;;;;;;;;;5038745;28;20032;-74
2023/02/06 06:59:09;;;;;;;41.08;22.10;;;;;;;;;;5056256;28;20043;-74
2023/02/06 07:01:35;;;;;;;41.78;23.05;;;;;;;;;;5056241;28;20033;-75
2023/02/06 07:04:00;;;;;;;34.78;21.50;;;;;;;;;;5054426;28;20091;-76
2023/02/06 07:06:26;;;;;;;35.70;21.98;;;;;;;;;;5036788;28;20069;-74
2023/02/06 07:08:51;;;;;;;35.83;21.98;;;;;;;;;;5037019;28;20028;-75
2023/02/06 07:11:17;;;;;;;36.83;22.92;;;;;;;;;;5054721;28;20057;-74
2023/02/06 07:13:43;;;;;;;38.97;22.83;;;;;;;;;;5036484;28;20510;-74
2023/02/06 07:16:08;;;;;;;39.92;22.33;;;;;;;;;;5036570;28;20041;-74
2023/02/06 07:18:33;;;;;;;34.03;21.73;;;;;;;;;;5037568;28;20025;-74
2023/02/06 07:20:59;;;;;;;31.10;18.67;;;;;;;;;;5056223;28;20360;-74
2023/02/06 07:23:27;;;;;;;22.42;13.90;;;;;;;;;;5055722;28;20044;-75
2023/02/06 07:25:55;;;;;;;23.00;13.40;;;;;;;;;;5037880;28;20029;-74
2023/02/06 07:28:20;;;;;;;31.77;16.95;;;;;;;;;;5055668;28;20028;-75
2023/02/06 07:30:46;;;;;;;36.75;19.45;;;;;;;;;;5037769;28;20025;-75
2023/02/06 07:33:11;;;;;;;31.02;18.38;;;;;;;;;;5038033;28;20384;-75
2023/02/06 07:35:36;;;;;;;31.25;18.45;;;;;;;;;;5037805;28;20048;-75
2023/02/06 07:38:02;;;;;;;32.63;18.33;;;;;;;;;;5055619;28;20025;-74
2023/02/06 07:40:28;;;;;;;30.90;18.33;;;;;;;;;;5055488;28;20411;-74
2023/02/06 07:42:53;;;;;;;32.95;19.00;;;;;;;;;;5055370;28;20084;-74
2023/02/06 07:45:24;;;;;;;30.90;19.25;;;;;;;;;;5021732;28;20029;-75
2023/02/06 07:47:50;;;;;;;29.05;18.52;;;;;;;;;;5055318;28;20534;-74
2023/02/06 07:50:16;;;;;;;35.65;20.83;;;;;;;;;;5055351;28;20116;-74
2023/02/06 07:52:41;;;;;;;45.05;22.63;;;;;;;;;;5037230;28;20124;-76
2023/02/06 07:55:08;;;;;;;39.42;22.17;;;;;;;;;;5055298;28;20036;-75
2023/02/06 07:57:34;;;;;;;41.80;22.98;;;;;;;;;;5055240;28;20039;-75
2023/02/06 07:59:59;;;;;;;43.20;23.25;;;;;;;;;;5055136;28;20115;-75
2023/02/06 08:02:25;;;;;;;64.38;32.63;;;;;;;;;;5037268;28;20057;-75
2023/02/06 08:04:50;;;;;;;75.80;37.47;;;;;;;;;;5037259;28;20545;-75
2023/02/06 08:07:16;;;;;;;61.80;32.92;;;;;;;;;;5037238;28;20471;-75
2023/02/06 08:09:41;;;;;;;67.00;34.53;;;;;;;;;;5055353;28;20021;-75
2023/02/06 08:12:09;;;;;;;67.22;34.72;;;;;;;;;;5037220;28;20036;-75
2023/02/06 08:14:34;;;;;;;62.35;32.95;;;;;;;;;;5055040;28;20028;-74
2023/02/06 08:17:01;;;;;;;62.80;33.45;;;;;;;;;;5037029;28;20036;-74
2023/02/06 08:19:26;;;;;;;59.78;32.70;;;;;;;;;;5055089;28;20031;-75
2023/02/06 08:21:51;;;;;;;57.55;31.25;;;;;;;;;;5036806;28;20037;-75
2023/02/06 08:24:17;;;;;;;56.47;31.70;;;;;;;;;;5036822;28;20399;-75
2023/02/06 08:26:43;;;;;;;36.75;22.77;;;;;;;;;;5054668;28;20029;-75
2023/02/06 08:29:08;;;;;;;21.13;13.55;;;;;;;;;;5036748;28;20040;-74
2023/02/06 08:31:39;;;;;;;12.57;9.40;;;;;;;;;;5020247;28;20025;-75
2023/02/06 08:34:05;;;;;;;17.83;12.00;;;;;;;;;;5054545;28;20032;-73
2023/02/06 08:36:33;;;;;;;30.17;19.08;;;;;;;;;;5054513;28;20029;-74
2023/02/06 08:38:59;;;;;;;16.02;11.02;;;;;;;;;;5036389;28;20040;-73
2023/02/06 08:41:25;;;;;;;20.17;12.98;;;;;;;;;;5020089;28;20033;-74
2023/02/06 08:43:52;;;;;;;9.32;7.65;;;;;;;;;;5054235;28;20032;-74
2023/02/06 08:46:18;;;;;;;13.90;9.63;;;;;;;;;;5054240;28;20029;-74
2023/02/06 08:48:44;;;;;;;33.53;15.18;;;;;;;;;;5036361;28;20071;-73
2023/02/06 08:51:13;;;;;;;21.75;13.35;;;;;;;;;;5036437;28;20431;-74
2023/02/06 08:53:38;;;;;;;39.78;17.17;;;;;;;;;;5035861;28;20052;-73
2023/02/06 08:56:05;;;;;;;27.90;21.17;;;;;;;;;;5036419;28;20032;-74
2023/02/06 08:58:30;;;;;;;11.35;10.20;;;;;;;;;;5036096;28;20478;-75
2023/02/06 09:00:56;;;;;;;14.93;13.32;;;;;;;;;;5054044;28;20051;-75
2023/02/06 09:03:22;;;;;;;6.32;5.07;;;;;;;;;;5054168;28;20040;-73
2023/02/06 09:05:48;;;;;;;9.15;7.07;;;;;;;;;;5036414;28;20025;-75
2023/02/06 09:08:15;;;;;;;6.63;5.63;;;;;;;;;;5053982;28;20344;-74
2023/02/06 09:10:40;;;;;;;19.63;17.73;;;;;;;;;;5035987;28;20052;-73
2023/02/06 09:13:06;;;;;;;24.90;15.10;;;;;;;;;;5036044;28;20470;-74
2023/02/06 09:15:31;;;;;;;25.50;15.70;;;;;;;;;;5053808;28;20445;-74
2023/02/06 09:17:56;;;;;;;41.60;25.10;;;;;;;;;;5066568;22;20126;-74
2023/02/06 09:20:25;;;;;;;14.63;10.75;;;;;;;;;;5036055;28;20037;-74
2023/02/06 09:22:52;;;;;;;21.92;16.25;;;;;;;;;;5053695;28;20467;-75
2023/02/06 09:25:17;;;;;;;15.77;10.73;;;;;;;;;;5035728;28;20021;-75
2023/02/06 09:27:45;;;;;;;24.20;14.77;;;;;;;;;;5035860;28;20387;-74
2023/02/06 09:30:12;;;;;;;24.38;12.95;;;;;;;;;;5067373;23;20052;-73
2023/02/06 09:32:37;;;;;;;8.65;6.18;;;;;;;;;;5053841;28;20021;-75
2023/02/06 09:35:03;;;;;;;5.93;4.60;;;;;;;;;;5054228;28;20552;-73
2023/02/06 09:37:28;;;;;;;8.32;6.60;;;;;;;;;;5055165;28;20039;-73
2023/02/06 09:39:55;;;;;;;76.28;52.65;;;;;;;;;;5053691;28;20036;-75
2023/02/06 09:42:31;;;;;;;14.65;9.95;;;;;;;;;;5053373;28;20474;-75
2023/02/06 09:45:01;;;;;;;15.85;13.93;;;;;;;;;;5035522;28;20037;-74
2023/02/06 09:47:32;;;;;;;13.60;12.20;;;;;;;;;;5053521;28;20037;-73
2023/02/06 09:49:57;;;;;;;;;;;;;;;;;;5053921;28;20029;-74
2023/02/06 09:52:31;;;;;;;18.92;13.55;;;;;;;;;;5035653;28;20340;-74
2023/02/06 09:55:28;;;;;;;10.65;6.53;;;;;;;;;;5053359;28;20095;-73
2023/02/06 09:57:54;;;;;;;18.90;15.15;;;;;;;;;;4995413;28;20045;-73
2023/02/06 10:00:38;;;;;;;19.42;17.38;;;;;;;;;;5053287;28;20383;-73
2023/02/06 10:03:19;;;;;;;10.93;9.88;;;;;;;;;;5053787;28;20116;-75
2023/02/06 10:05:44;;;;;;;;;;;;;;;;;;5055736;28;20021;-73
2023/02/06 10:08:17;;;;;;;14.67;10.77;;;;;;;;;;5039785;28;20031;-73
2023/02/06 10:10:51;;;;;;;12.40;10.32;;;;;;;;;;5039320;28;20395;-76
2023/02/06 10:13:21;;;;;;;13.82;8.00;;;;;;;;;;5039317;28;20431;-75
2023/02/06 10:15:48;;;;;;;14.80;9.68;;;;;;;;;;5057205;28;20383;-75
2023/02/06 10:18:13;;;;;;;5.22;4.82;;;;;;;;;;5039775;28;20433;-74
2023/02/06 10:20:48;;;;;;;9.63;7.55;;;;;;;;;;5057168;28;20025;-74
2023/02/06 10:23:26;;;;;;;25.50;17.00;;;;;;;;;;5039309;28;20394;-75
2023/02/06 10:26:15;;;;;;;44.45;26.65;;;;;;;;;;5057112;28;20387;-74
2023/02/06 10:28:49;;;;;;;12.98;11.05;;;;;;;;;;5056963;28;20128;-74
2023/02/06 10:31:24;;;;;;;16.13;13.32;;;;;;;;;;5038803;28;20083;-75
2023/02/06 10:34:08;;;;;;;12.02;10.27;;;;;;;;;;5038879;28;20029;-73
2023/02/06 10:36:55;;;;;;;13.70;8.00;;;;;;;;;;5038919;28;20098;-74
2023/02/06 10:39:24;;;;;;;74.43;42.58;;;;;;;;;;5038787;28;20033;-74
2023/02/06 10:41:49;;;;;;;57.22;34.35;;;;;;;;;;5038848;28;20494;-74
2023/02/06 10:44:21;;;;;;;21.75;16.33;;;;;;;;;;5056722;28;20029;-75
2023/02/06 10:46:49;;;;;;;29.17;14.88;;;;;;;;;;5038706;28;20044;-74
2023/02/06 10:49:35;;;;;;;16.13;11.75;;;;;;;;;;5056839;28;20445;-73
2023/02/06 10:52:02;;;;;;;15.18;11.27;;;;;;;;;;5038570;28;20123;-73
2023/02/06 10:54:32;;;;;;;26.88;15.75;;;;;;;;;;5038594;28;20016;-73
2023/02/06 10:56:58;;;;;;;33.35;22.35;;;;;;;;;;5038586;28;20041;-73
2023/02/06 10:59:27;;;;;;;36.35;29.50;;;;;;;;;;5056372;28;20032;-74
2023/02/06 11:01:57;;;;;;;7.47;6.68;;;;;;;;;;5038546;28;20033;-74
2023/02/06 11:04:32;;;;;;;141.63;88.40;;;;;;;;;;5056259;28;20043;-74
2023/02/06 11:07:00;;;;;;;8.23;6.03;;;;;;;;;;5056259;28;20054;-74
2023/02/06 11:09:25;;;;;;;9.88;8.88;;;;;;;;;;5056283;28;20518;-75
2023/02/06 11:11:53;;;;;;;16.20;11.40;;;;;;;;;;5021716;28;20110;-73
2023/02/06 11:14:21;;;;;;;22.92;16.17;;;;;;;;;;5038261;28;20037;-74
2023/02/06 11:16:47;;;;;;;10.57;7.25;;;;;;;;;;5055546;28;20029;-75
2023/02/06 11:19:19;;;;;;;35.00;30.67;;;;;;;;;;5056070;28;20044;-74
2023/02/06 11:21:46;;;;;;;20.95;15.57;;;;;;;;;;5055961;28;20040;-76
2023/02/06 11:24:13;;;;;;;9.80;7.22;;;;;;;;;;5055819;28;20040;-74
2023/02/06 11:26:42;;;;;;;6.15;5.20;;;;;;;;;;5055877;28;20029;-75
2023/02/06 11:29:12;;;;;;;13.57;8.43;;;;;;;;;;5055806;28;20112;-74
2023/02/06 11:31:43;;;;;;;40.03;25.65;;;;;;;;;;5037815;28;20476;-75
2023/02/06 11:34:10;;;;;;;;;;;;;;;;;;5056224;28;20052;-74
2023/02/06 11:36:37;;;;;;;24.65;21.60;;;;;;;;;;5055769;28;19908;-74
2023/02/06 11:39:19;;;;;;;18.05;13.38;;;;;;;;;;5021336;28;20364;-74
2023/02/06 11:41:55;;;;;;;21.55;16.25;;;;;;;;;;5055547;28;20028;-74
2023/02/06 11:44:22;;;;;;;25.55;17.40;;;;;;;;;;5037578;28;20084;-74
2023/02/06 11:46:48;;;;;;;58.08;35.97;;;;;;;;;;5055418;28;20509;-74
2023/02/06 11:49:27;;;;;;;10.82;7.57;;;;;;;;;;5055414;28;20016;-74
2023/02/06 11:51:54;;;;;;;8.45;5.97;;;;;;;;;;5055476;28;20028;-74
2023/02/06 11:54:27;;;;;;;16.08;12.02;;;;;;;;;;5055385;28;20033;-74
2023/02/06 11:57:06;;;;;;;117.45;77.63;;;;;;;;;;5055331;28;20144;-74
2023/02/06 11:59:34;;;;;;;138.05;111.00;;;;;;;;;;5055310;28;20037;-73
2023/02/06 12:02:00;;;;;;;177.55;115.53;;;;;;;;;;5049677;23;20866;-74
2023/02/06 12:04:38;;;;;;;295.50;155.20;;;;;;;;;;5056902;23;20093;-74
2023/02/06 12:07:03;;;;;;;181.32;95.75;;;;;;;;;;5035186;28;20053;-75
2023/02/06 12:09:29;;;;;;;278.48;146.10;;;;;;;;;;5035386;28;20080;-74
2023/02/06 12:12:07;;;;;;;407.05;252.30;;;;;;;;;;5017268;28;20469;-75
2023/02/06 12:14:50;;;;;;;65.75;50.40;;;;;;;;;;5035319;28;20061;-75
2023/02/06 12:17:22;;;;;;;63.95;43.42;;;;;;;;;;5017645;28;20033;-74
2023/02/06 12:19:51;;;;;;;65.20;42.60;;;;;;;;;;5034972;28;20040;-75
2023/02/06 12:22:19;;;;;;;20.02;13.50;;;;;;;;;;5017169;28;20550;-75
2023/02/06 12:24:47;;;;;;;17.58;12.75;;;;;;;;;;5034793;28;20502;-75
2023/02/06 12:27:18;;;;;;;84.22;59.33;;;;;;;;;;5034646;28;20072;-75
2023/02/06 12:29:49;;;;;;;21.02;16.42;;;;;;;;;;5034951;28;20033;-75
2023/02/06 12:32:22;;;;;;;25.38;17.80;;;;;;;;;;5034958;28;20029;-75
2023/02/06 12:34:52;;;;;;;27.50;20.73;;;;;;;;;;5034668;28;20068;-74
2023/02/06 12:37:38;;;;;;;48.45;31.30;;;;;;;;;;5034927;28;20039;-74
2023/02/06 12:40:13;;;;;;;44.42;27.65;;;;;;;;;;5034808;28;20083;-75
2023/02/06 12:42:44;;;;;;;22.35;15.45;;;;;;;;;;5017279;28;20209;-75
2023/02/06 12:45:12;;;;;;;41.17;25.08;;;;;;;;;;5034697;28;20036;-75
2023/02/06 12:47:37;;;;;;;61.10;35.45;;;;;;;;;;5034400;28;20017;-74
2023/02/06 12:50:15;;;;;;;56.97;31.35;;;;;;;;;;5000267;28;20036;-75
2023/02/06 12:52:43;;;;;;;32.92;22.05;;;;;;;;;;5034619;28;20030;-74
2023/02/06 12:55:18;;;;;;;48.50;29.65;;;;;;;;;;5034580;28;20152;-75
2023/02/06 12:57:44;;;;;;;61.00;36.25;;;;;;;;;;5034510;28;20168;-75
2023/02/06 13:00:12;;;;;;;41.15;22.63;;;;;;;;;;5034236;28;20070;-74
2023/02/06 13:03:00;;;;;;;53.75;28.83;;;;;;;;;;5016597;28;20034;-75
2023/02/06 13:05:27;;;;;;;29.25;16.98;;;;;;;;;;5016203;28;20402;-75
2023/02/06 13:07:55;;;;;;;16.05;10.80;;;;;;;;;;5016370;28;20060;-75
2023/02/06 13:10:24;;;;;;;15.85;11.75;;;;;;;;;;5034316;28;20029;-75
2023/02/06 13:13:00;;;;;;;16.58;11.50;;;;;;;;;;5034230;28;20120;-75
2023/02/06 13:15:26;;;;;;;24.85;17.05;;;;;;;;;;5016254;28;20052;-75
2023/02/06 13:17:54;;;;;;;32.25;23.05;;;;;;;;;;5016155;28;20104;-75
2023/02/06 13:20:21;;;;;;;16.08;14.27;;;;;;;;;;4999840;28;20025;-75
2023/02/06 13:22:51;;;;;;;45.90;24.73;;;;;;;;;;5016994;28;20423;-75
2023/02/06 13:25:28;;;;;;;23.23;15.65;;;;;;;;;;5034052;28;20043;-75
2023/02/06 13:27:54;;;;;;;54.50;27.38;;;;;;;;;;5034327;28;20033;-75
2023/02/06 13:30:22;;;;;;;19.20;12.40;;;;;;;;;;5034336;28;20112;-75
2023/02/06 13:32:49;;;;;;;18.80;12.35;;;;;;;;;;5034277;28;20076;-75
2023/02/06 13:35:18;;;;;;;15.48;11.32;;;;;;;;;;5033696;28;20070;-74
2023/02/06 13:37:45;;;;;;;21.53;16.43;;;;;;;;;;5016403;28;20066;-75
2023/02/06 13:40:23;;;;;;;16.30;11.68;;;;;;;;;;5015807;28;20033;-75
2023/02/06 13:42:55;;;;;;;11.23;8.77;;;;;;;;;;5015906;28;20030;-75
2023/02/06 13:45:39;;;;;;;14.15;10.10;;;;;;;;;;5016205;28;20041;-75
2023/02/06 13:48:18;;;;;;;14.70;10.95;;;;;;;;;;5033509;28;20037;-74
2023/02/06 13:50:52;;;;;;;10.88;8.50;;;;;;;;;;4999490;28;20029;-75
2023/02/06 13:53:36;;;;;;;16.05;10.90;;;;;;;;;;5034074;28;20475;-75
2023/02/06 13:56:22;;;;;;;19.23;11.68;;;;;;;;;;5015747;28;20041;-74
2023/02/06 13:58:49;;;;;;;114.70;42.25;;;;;;;;;;5015278;28;20041;-75
2023/02/06 14:01:19;;;;;;;16.15;11.10;;;;;;;;;;5016246;28;20029;-75
2023/02/06 14:03:46;;;;;;;45.80;23.92;;;;;;;;;;5015602;28;20049;-74
2023/02/06 14:06:44;;;;;;;34.10;20.30;;;;;;;;;;4999277;28;20416;-75
2023/02/06 14:09:29;;;;;;;75.22;37.08;;;;;;;;;;4999753;28;20084;-75
2023/02/06 14:14:51;;;;;;;26.58;17.85;;;;;;;;;;5015842;28;20484;-75
2023/02/06 14:17:34;;;;;;;48.08;31.50;;;;;;;;;;5033548;28;20487;-75
2023/02/06 14:20:21;;;;;;;46.00;29.60;;;;;;;;;;5033225;28;20029;-75
2023/02/06 14:23:10;;;;;;;19.08;13.30;;;;;;;;;;5033768;28;20040;-74
2023/02/06 14:25:44;;;;;;;23.67;16.40;;;;;;;;;;5010005;28;20073;-74
2023/02/06 14:28:28;;;;;;;20.50;13.45;;;;;;;;;;5033779;28;20029;-74
2023/02/06 14:31:04;;;;;;;20.60;14.88;;;;;;;;;;5015477;28;20037;-74
2023/02/06 14:33:35;;;;;;;24.50;17.95;;;;;;;;;;5015402;28;20029;-75
2023/02/06 14:36:11;;;;;;;48.67;29.52;;;;;;;;;;5015684;28;20037;-75
2023/02/06 14:38:43;;;;;;;88.53;56.38;;;;;;;;;;5032893;28;20029;-74